Weather at Ain Beida Airport

Public forecast

Using degrees Celsius for public forecast. Weather courtesy of forecast.io.

Current aviation weather report (METAR) for Ain Beida Airport

Report is more than 6 hours old.

2022/11/14 15:00 (retrieved 2 years ago)

DAUU 141500Z 26004KT 230V300 CAVOK 28/02 Q1019

Closest aviation forecast (TAF) to Ain Beida Airport

Forecast is more than 12 hours old.

Closest forecast is Hassi Messaoud-Oued Irara Krim Belkacem Airport, 39.9 nm (73.9 km) ESE.

2023/02/22 18:33 (retrieved 1 year ago)

TAF DAUH 221700Z 2218/2318 20008KT CAVOK